Time;durP1;ratioP1;P1;durP2;ratioP2;P2;SDS_P1;SDS_P2;PMS_P1;PMS_P2;Temp;Humidity;BMP_temperature;BMP_pressure;BME280_temperature;BME280_humidity;BME280_pressure;Samples;Min_cycle;Max_cycle;Signal;HPM_P1;HPM_P2
2023/12/06 00:00:07;;;;;;;6.93;6.32;;;8.10;65.10;;;;;;4994567;28;20049;-84
2023/12/06 00:02:34;;;;;;;6.38;5.78;;;8.10;65.10;;;;;;5028886;28;20044;-84
2023/12/06 00:05:04;;;;;;;7.70;6.50;;;8.10;65.10;;;;;;5027407;28;20025;-84
2023/12/06 00:07:31;;;;;;;8.05;7.15;;;8.10;65.10;;;;;;5027018;28;20033;-82
2023/12/06 00:09:59;;;;;;;7.85;6.38;;;8.10;65.20;;;;;;5029415;28;20045;-83
2023/12/06 00:12:25;;;;;;;8.88;6.32;;;8.10;65.20;;;;;;5031401;28;20073;-85
2023/12/06 00:14:51;;;;;;;7.05;6.40;;;8.10;65.20;;;;;;5028807;28;20093;-85
2023/12/06 00:17:17;;;;;;;7.05;6.35;;;8.00;65.10;;;;;;5003963;28;20121;-83
2023/12/06 00:19:43;;;;;;;8.98;6.53;;;8.00;65.10;;;;;;5012958;28;20514;-85
2023/12/06 00:22:14;;;;;;;7.78;6.38;;;8.00;65.10;;;;;;5014758;28;20057;-84
2023/12/06 00:24:40;;;;;;;8.20;6.80;;;8.00;65.10;;;;;;5016537;28;20146;-84
2023/12/06 00:27:09;;;;;;;8.80;6.72;;;8.00;65.10;;;;;;5012079;28;20030;-85
2023/12/06 00:29:34;;;;;;;6.57;6.00;;;8.00;65.20;;;;;;5012544;28;20025;-86
2023/12/06 00:32:08;;;;;;;6.75;6.13;;;7.90;65.00;;;;;;5013451;28;20108;-84
2023/12/06 00:34:34;;;;;;;7.15;6.40;;;7.90;65.00;;;;;;5012563;28;20037;-85
2023/12/06 00:37:00;;;;;;;7.07;6.20;;;7.90;65.00;;;;;;4995081;28;20041;-84
2023/12/06 00:39:28;;;;;;;7.50;6.68;;;7.90;65.60;;;;;;5014595;28;20046;-85
2023/12/06 00:41:54;;;;;;;6.90;6.05;;;7.90;65.10;;;;;;5013385;28;20125;-84
2023/12/06 00:44:20;;;;;;;7.15;6.45;;;7.80;65.00;;;;;;5016833;28;20061;-88
2023/12/06 00:46:47;;;;;;;6.47;5.88;;;7.80;65.00;;;;;;5014555;28;20092;-83
2023/12/06 00:49:17;;;;;;;7.47;6.28;;;7.80;65.10;;;;;;4993242;28;20061;-85
2023/12/06 00:51:44;;;;;;;7.90;6.10;;;7.80;65.10;;;;;;5010727;28;20030;-85
2023/12/06 00:54:11;;;;;;;6.80;5.90;;;7.80;65.10;;;;;;4997095;28;20030;-83
2023/12/06 00:56:37;;;;;;;7.30;6.00;;;7.80;65.10;;;;;;4992324;28;20028;-84
2023/12/06 00:59:04;;;;;;;6.55;5.90;;;7.80;65.10;;;;;;5004876;28;20046;-85
2023/12/06 01:01:32;;;;;;;6.80;6.03;;;7.80;65.10;;;;;;4990506;28;20536;-86
2023/12/06 01:03:58;;;;;;;6.72;6.03;;;7.70;65.00;;;;;;4989025;28;20139;-85
2023/12/06 01:06:24;;;;;;;6.50;5.50;;;7.70;65.00;;;;;;4988684;28;20093;-85
2023/12/06 01:08:50;;;;;;;7.32;6.60;;;7.60;64.80;;;;;;4984544;28;20031;-87
2023/12/06 01:11:17;;;;;;;7.97;6.50;;;7.60;64.80;;;;;;5003711;28;20070;-85
2023/12/06 01:13:44;;;;;;;7.88;6.72;;;7.60;64.90;;;;;;5005294;28;20034;-85
2023/12/06 01:16:11;;;;;;;7.55;6.07;;;7.60;64.90;;;;;;4982009;28;20039;-86
2023/12/06 01:18:37;;;;;;;7.10;6.28;;;7.50;64.70;;;;;;4987251;28;20713;-85
2023/12/06 01:21:04;;;;;;;6.90;6.20;;;7.50;64.80;;;;;;4991793;28;20030;-87
2023/12/06 01:23:30;;;;;;;7.30;6.60;;;7.50;64.80;;;;;;5003892;28;20026;-87
2023/12/06 01:25:56;;;;;;;7.55;6.28;;;7.40;64.60;;;;;;4989774;28;20412;-86
2023/12/06 01:28:23;;;;;;;6.47;5.78;;;7.40;64.70;;;;;;4988502;28;20037;-85
2023/12/06 01:30:50;;;;;;;7.63;6.32;;;7.30;64.50;;;;;;5000685;28;20117;-85
2023/12/06 01:33:16;;;;;;;6.82;6.00;;;7.30;64.50;;;;;;4992359;28;20109;-86
2023/12/06 01:35:42;;;;;;;7.53;5.93;;;7.30;64.60;;;;;;5003209;28;20469;-87
2023/12/06 01:38:10;;;;;;;6.80;6.10;;;7.20;64.50;;;;;;5005970;28;20109;-87
2023/12/06 01:40:36;;;;;;;7.05;6.25;;;7.20;64.50;;;;;;4995216;28;20034;-87
2023/12/06 01:43:02;;;;;;;6.22;5.63;;;7.10;64.30;;;;;;5005477;28;20117;-87
2023/12/06 01:45:28;;;;;;;6.63;5.90;;;7.10;64.30;;;;;;4985752;28;20566;-87
2023/12/06 01:47:55;;;;;;;7.10;6.30;;;7.10;64.30;;;;;;4990100;28;20518;-85
2023/12/06 01:50:23;;;;;;;6.70;6.00;;;7.10;64.30;;;;;;4985825;28;20483;-88
2023/12/06 01:52:50;;;;;;;7.50;6.10;;;7.00;64.20;;;;;;5008448;28;21121;-87
2023/12/06 01:55:17;;;;;;;6.72;5.60;;;7.00;64.20;;;;;;5011435;28;20079;-87
2023/12/06 01:57:45;;;;;;;7.25;5.13;;;6.90;64.00;;;;;;5012895;28;20041;-88
2023/12/06 02:00:14;;;;;;;6.43;5.03;;;6.90;64.00;;;;;;5012501;28;20050;-88
2023/12/06 02:02:44;;;;;;;5.88;5.07;;;6.90;64.00;;;;;;5012509;28;20030;-86
2023/12/06 02:05:12;;;;;;;5.25;4.78;;;6.80;63.90;;;;;;5007722;28;20105;-83
2023/12/06 02:07:40;;;;;;;5.30;4.88;;;6.80;63.90;;;;;;4989472;28;20060;-84
2023/12/06 02:10:09;;;;;;;5.07;4.63;;;6.70;63.70;;;;;;5004764;28;20049;-85
2023/12/06 02:12:41;;;;;;;5.22;4.60;;;6.70;63.70;;;;;;4987494;28;20036;-85
2023/12/06 02:15:08;;;;;;;5.03;4.53;;;6.60;63.50;;;;;;5010486;28;20034;-84
2023/12/06 02:17:35;;;;;;;5.70;5.03;;;6.60;63.50;;;;;;5012012;28;20030;-85
2023/12/06 02:20:02;;;;;;;6.57;4.40;;;6.50;63.40;;;;;;5013084;28;20411;-85
2023/12/06 02:22:32;;;;;;;7.10;4.95;;;6.50;63.40;;;;;;5007527;28;20917;-83
2023/12/06 02:25:07;;;;;;;4.82;4.43;;;6.40;63.30;;;;;;5009444;28;20218;-83
2023/12/06 02:27:35;;;;;;;4.68;4.28;;;6.40;63.30;;;;;;4996247;28;20647;-84
2023/12/06 02:30:02;;;;;;;7.07;4.20;;;6.40;63.30;;;;;;4995801;28;20499;-84
2023/12/06 02:32:32;;;;;;;4.60;4.20;;;6.30;63.20;;;;;;5013885;28;20030;-84
2023/12/06 02:34:59;;;;;;;5.88;4.15;;;6.30;63.10;;;;;;5016865;28;20026;-83
2023/12/06 02:37:25;;;;;;;8.95;3.88;;;6.20;63.00;;;;;;5010110;28;20477;-84
2023/12/06 02:39:55;;;;;;;4.15;3.35;;;6.20;63.00;;;;;;5017920;28;20036;-84
2023/12/06 02:42:21;;;;;;;4.80;3.58;;;6.10;62.80;;;;;;5009566;28;21447;-82
2023/12/06 02:44:47;;;;;;;4.40;3.42;;;6.10;62.80;;;;;;5017151;28;20049;-84
2023/12/06 02:47:15;;;;;;;6.32;3.90;;;6.10;62.80;;;;;;5000294;28;20053;-84
2023/12/06 02:49:42;;;;;;;3.40;3.10;;;6.00;62.70;;;;;;5002504;28;20053;-85
2023/12/06 02:52:08;;;;;;;3.28;2.83;;;6.00;62.70;;;;;;5014960;28;20034;-85
2023/12/06 02:54:35;;;;;;;5.30;3.15;;;5.90;62.50;;;;;;5015931;28;20041;-84
2023/12/06 02:57:01;;;;;;;3.08;2.67;;;5.90;62.50;;;;;;5017293;28;20022;-85
2023/12/06 02:59:27;;;;;;;3.35;3.03;;;5.80;62.40;;;;;;5013121;28;20064;-83
2023/12/06 03:01:54;;;;;;;3.28;2.97;;;5.80;62.40;;;;;;5006786;28;20038;-86
2023/12/06 03:04:20;;;;;;;3.72;3.42;;;5.70;62.30;;;;;;5007876;28;20044;-85
2023/12/06 03:06:47;;;;;;;4.57;3.30;;;5.80;62.50;;;;;;4976210;28;20116;-85
2023/12/06 03:09:18;;;;;;;2.95;2.50;;;5.70;62.30;;;;;;5013704;28;20076;-86
2023/12/06 03:11:46;;;;;;;3.35;3.03;;;5.60;62.20;;;;;;4981548;28;20074;-85
2023/12/06 03:14:14;;;;;;;3.10;2.75;;;5.60;62.10;;;;;;4997914;28;20061;-87
2023/12/06 03:16:40;;;;;;;3.00;2.75;;;5.60;62.20;;;;;;5016082;28;20025;-86
2023/12/06 03:19:07;;;;;;;3.95;2.83;;;5.50;62.00;;;;;;5014023;28;20133;-86
2023/12/06 03:21:33;;;;;;;4.10;3.63;;;5.40;61.80;;;;;;5016005;28;20058;-87
2023/12/06 03:24:00;;;;;;;3.15;2.78;;;5.40;61.80;;;;;;4988754;28;20546;-86
2023/12/06 03:26:26;;;;;;;2.67;2.47;;;5.40;61.90;;;;;;5016078;28;20021;-84
2023/12/06 03:28:52;;;;;;;3.58;3.25;;;5.40;61.90;;;;;;5016516;28;20036;-85
2023/12/06 03:31:18;;;;;;;3.88;2.80;;;5.30;61.70;;;;;;5015501;28;20475;-86
2023/12/06 03:33:44;;;;;;;3.58;3.10;;;5.30;61.70;;;;;;5013703;28;20351;-85
2023/12/06 03:36:11;;;;;;;3.53;3.17;;;5.30;61.70;;;;;;5015540;28;20037;-86
2023/12/06 03:38:38;;;;;;;3.42;3.10;;;5.20;61.60;;;;;;5010750;28;20034;-84
2023/12/06 03:41:04;;;;;;;4.00;3.50;;;5.20;61.60;;;;;;5014070;28;20157;-84
2023/12/06 03:43:30;;;;;;;3.85;3.28;;;5.10;61.40;;;;;;5010454;28;20074;-82
2023/12/06 03:45:58;;;;;;;6.07;4.07;;;5.10;61.40;;;;;;5013736;28;20056;-81
2023/12/06 03:48:24;;;;;;;5.20;3.58;;;5.10;61.40;;;;;;5018289;28;20364;-82
2023/12/06 03:50:50;;;;;;;3.45;2.95;;;5.00;61.30;;;;;;5009371;28;20030;-82
2023/12/06 03:53:16;;;;;;;3.67;3.30;;;5.00;61.30;;;;;;5013614;28;20036;-81
2023/12/06 03:55:43;;;;;;;4.45;3.50;;;5.00;61.40;;;;;;5011917;28;20511;-82
2023/12/06 03:58:09;;;;;;;3.75;3.38;;;4.90;61.20;;;;;;4995682;28;20107;-83
2023/12/06 04:00:35;;;;;;;4.75;3.10;;;4.90;61.20;;;;;;5012289;28;20049;-83
2023/12/06 04:03:03;;;;;;;5.57;3.70;;;4.90;61.20;;;;;;5015982;28;20402;-83
2023/12/06 04:05:31;;;;;;;4.47;3.45;;;4.80;61.10;;;;;;5011067;28;20062;-82
2023/12/06 04:07:57;;;;;;;4.03;3.33;;;4.80;61.10;;;;;;5014090;28;20026;-82
2023/12/06 04:10:23;;;;;;;3.55;3.20;;;4.80;61.10;;;;;;5009679;28;20038;-82
2023/12/06 04:12:51;;;;;;;4.13;3.63;;;4.80;61.10;;;;;;4990024;28;20118;-81
2023/12/06 04:15:17;;;;;;;3.78;3.40;;;4.70;60.90;;;;;;5008183;28;20041;-82
2023/12/06 04:17:46;;;;;;;4.25;3.70;;;4.70;60.90;;;;;;4992812;28;20435;-81
2023/12/06 04:20:13;;;;;;;4.63;3.28;;;4.60;60.80;;;;;;5010367;28;20041;-81
2023/12/06 04:22:39;;;;;;;5.68;3.70;;;4.60;60.80;;;;;;4977740;28;20483;-81
2023/12/06 04:25:07;;;;;;;4.35;3.72;;;4.60;60.80;;;;;;4978119;28;20127;-82
2023/12/06 04:27:32;;;;;;;4.65;3.67;;;4.60;60.80;;;;;;4993481;28;20030;-81
2023/12/06 04:30:01;;;;;;;4.70;3.63;;;4.60;60.80;;;;;;5012399;28;20036;-82
2023/12/06 04:32:27;;;;;;;5.97;3.60;;;4.50;60.70;;;;;;5008696;28;20026;-82
2023/12/06 04:34:55;;;;;;;4.85;3.28;;;4.50;60.70;;;;;;5011346;28;20056;-82
2023/12/06 04:37:22;;;;;;;5.32;4.10;;;4.40;60.50;;;;;;5012063;28;20029;-81
2023/12/06 04:39:48;;;;;;;7.22;3.90;;;4.40;60.50;;;;;;5014891;28;20543;-80
2023/12/06 04:42:14;;;;;;;5.10;3.47;;;4.40;60.60;;;;;;5013972;28;20026;-80
2023/12/06 04:44:42;;;;;;;5.47;3.97;;;4.40;60.60;;;;;;5015576;28;20025;-82
2023/12/06 04:47:09;;;;;;;3.55;3.25;;;4.40;60.60;;;;;;5016293;28;20042;-81
2023/12/06 04:49:36;;;;;;;3.85;3.38;;;4.40;60.60;;;;;;5011086;28;20058;-82
2023/12/06 04:52:03;;;;;;;4.55;3.53;;;4.30;60.50;;;;;;5005821;28;20030;-83
2023/12/06 04:54:29;;;;;;;4.15;3.50;;;4.40;60.70;;;;;;5017821;28;20018;-82
2023/12/06 04:56:56;;;;;;;3.28;2.92;;;4.30;60.50;;;;;;5014879;28;20034;-82
2023/12/06 04:59:24;;;;;;;4.32;3.08;;;4.30;60.50;;;;;;5017496;28;20042;-84
2023/12/06 05:01:51;;;;;;;4.32;3.50;;;4.20;60.40;;;;;;5014673;28;20105;-82
2023/12/06 05:04:17;;;;;;;3.78;3.42;;;4.20;60.40;;;;;;5004459;28;20026;-82
2023/12/06 05:06:43;;;;;;;3.30;3.00;;;4.20;60.40;;;;;;5004826;28;20026;-82
2023/12/06 05:09:10;;;;;;;4.57;3.38;;;4.20;60.40;;;;;;5009280;28;20052;-82
2023/12/06 05:11:36;;;;;;;3.72;3.30;;;4.20;60.40;;;;;;5015302;28;20764;-83
2023/12/06 05:14:02;;;;;;;4.70;3.17;;;4.10;60.20;;;;;;5011544;28;20080;-83
2023/12/06 05:16:28;;;;;;;5.10;3.38;;;4.10;60.20;;;;;;5011694;28;20422;-83
2023/12/06 05:18:55;;;;;;;5.22;3.58;;;4.10;60.30;;;;;;5015671;28;20041;-84
2023/12/06 05:21:22;;;;;;;4.78;3.65;;;4.10;60.30;;;;;;4996438;28;20030;-84
2023/12/06 05:23:49;;;;;;;6.22;3.75;;;4.10;60.30;;;;;;5013161;28;20443;-83
2023/12/06 05:26:15;;;;;;;5.82;4.10;;;4.10;60.30;;;;;;5013597;28;20033;-83
2023/12/06 05:28:43;;;;;;;3.92;3.60;;;4.10;60.30;;;;;;5012716;28;20022;-84
2023/12/06 05:31:11;;;;;;;4.63;3.60;;;4.00;60.20;;;;;;5009112;28;20188;-84
2023/12/06 05:33:38;;;;;;;6.40;4.05;;;4.00;60.20;;;;;;5012076;28;20055;-84
2023/12/06 05:36:07;;;;;;;5.57;4.00;;;4.00;60.30;;;;;;4995739;28;20037;-85
2023/12/06 05:38:35;;;;;;;6.63;4.18;;;4.00;60.30;;;;;;5008201;28;20685;-82
2023/12/06 05:41:01;;;;;;;7.60;5.28;;;4.00;60.30;;;;;;5009075;28;20049;-83
2023/12/06 05:43:27;;;;;;;6.45;4.63;;;4.00;60.30;;;;;;4998168;28;20113;-84
2023/12/06 05:45:55;;;;;;;5.85;4.47;;;4.00;60.40;;;;;;5004364;28;20374;-83
2023/12/06 05:48:21;;;;;;;5.90;4.63;;;4.00;60.40;;;;;;5008172;28;20049;-87
2023/12/06 05:50:56;;;;;;;6.07;4.35;;;4.00;60.40;;;;;;5006453;28;20157;-84
2023/12/06 05:53:23;;;;;;;6.22;5.53;;;4.00;60.50;;;;;;4983165;28;20387;-83
2023/12/06 05:55:50;;;;;;;7.47;5.25;;;4.00;60.50;;;;;;4985500;28;20272;-82
2023/12/06 05:58:16;;;;;;;5.88;4.82;;;4.00;60.50;;;;;;4994870;28;20517;-82
2023/12/06 06:00:44;;;;;;;5.85;5.32;;;4.00;60.50;;;;;;5010529;28;20033;-83
2023/12/06 06:03:10;;;;;;;7.32;5.65;;;4.00;60.50;;;;;;5001451;28;20096;-83
2023/12/06 06:05:38;;;;;;;6.70;5.72;;;4.10;60.70;;;;;;5004743;28;20033;-83
2023/12/06 06:08:04;;;;;;;15.55;6.25;;;4.00;60.60;;;;;;4985986;28;20029;-81
2023/12/06 06:10:30;;;;;;;7.30;6.53;;;4.10;60.80;;;;;;5006779;28;20422;-84
2023/12/06 06:12:56;;;;;;;6.60;5.63;;;4.10;60.80;;;;;;5005944;28;20140;-84
2023/12/06 06:15:21;;;;;;;10.35;7.38;;;4.10;60.80;;;;;;5006891;28;20124;-83
2023/12/06 06:17:47;;;;;;;7.55;5.78;;;4.10;60.80;;;;;;5006240;28;20109;-84
2023/12/06 06:20:15;;;;;;;7.43;6.22;;;4.10;60.90;;;;;;5003980;28;20066;-84
2023/12/06 06:22:43;;;;;;;9.13;7.03;;;4.10;60.90;;;;;;5001159;28;20038;-85
2023/12/06 06:25:11;;;;;;;8.52;6.53;;;4.10;60.90;;;;;;5026651;28;20035;-81
2023/12/06 06:27:37;;;;;;;9.48;7.18;;;4.10;60.90;;;;;;5025792;28;20030;-83
2023/12/06 06:30:13;;;;;;;7.90;7.10;;;4.10;60.90;;;;;;5011301;28;20030;-83
2023/12/06 06:32:40;;;;;;;10.00;7.28;;;4.20;61.20;;;;;;5006161;28;20028;-81
2023/12/06 06:35:07;;;;;;;8.68;7.50;;;4.10;61.00;;;;;;5012877;28;20042;-81
2023/12/06 06:37:34;;;;;;;10.30;7.10;;;4.20;61.20;;;;;;5024369;28;20034;-81
2023/12/06 06:40:01;;;;;;;10.00;8.30;;;4.20;61.20;;;;;;5003230;28;20048;-83
2023/12/06 06:42:27;;;;;;;8.68;7.45;;;4.20;61.20;;;;;;5005460;28;20026;-82
2023/12/06 06:44:55;;;;;;;9.10;7.47;;;4.20;61.20;;;;;;5005350;28;20116;-87
2023/12/06 06:47:23;;;;;;;9.70;7.35;;;4.20;61.20;;;;;;5025668;28;20368;-88
2023/12/06 06:49:49;;;;;;;8.20;6.88;;;4.20;61.20;;;;;;4987414;28;20058;-84
2023/12/06 06:52:20;;;;;;;10.55;8.02;;;4.20;61.20;;;;;;4997051;28;20094;-90
2023/12/06 06:54:47;;;;;;;12.00;8.52;;;4.30;61.60;;;;;;4983913;28;20030;-90
2023/12/06 06:57:14;;;;;;;10.35;8.93;;;4.30;61.70;;;;;;4987535;28;20385;-89
2023/12/06 06:59:40;;;;;;;11.35;8.20;;;4.40;62.00;;;;;;4991115;28;20030;-83
2023/12/06 07:02:31;;;;;;;13.15;9.55;;;4.40;62.00;;;;;;4986629;28;20074;-91
2023/12/06 07:05:00;;;;;;;12.27;9.57;;;4.50;62.30;;;;;;4986132;28;20046;-92
2023/12/06 07:07:27;;;;;;;11.80;9.35;;;4.40;62.10;;;;;;4976328;28;20046;-91
2023/12/06 07:09:57;;;;;;;10.98;9.45;;;4.50;62.30;;;;;;4976673;28;20037;-92
2023/12/06 07:12:29;;;;;;;13.73;9.90;;;4.50;62.40;;;;;;5001187;28;20025;-93
2023/12/06 07:14:59;;;;;;;14.00;10.60;;;4.50;62.40;;;;;;4987839;28;20069;-96
2023/12/06 07:17:32;;;;;;;13.13;9.55;;;4.50;62.40;;;;;;4993392;28;20057;-85
2023/12/06 07:19:58;;;;;;;16.75;11.40;;;4.50;62.40;;;;;;4983689;28;20071;-82
2023/12/06 07:22:27;;;;;;;14.57;10.35;;;4.50;62.50;;;;;;5006371;28;20308;-84
2023/12/06 07:24:53;;;;;;;15.15;10.75;;;4.60;62.70;;;;;;4974383;28;20133;-85
2023/12/06 07:27:19;;;;;;;13.52;11.15;;;4.60;62.80;;;;;;4986664;28;20177;-86
2023/12/06 07:29:47;;;;;;;14.02;11.90;;;4.60;62.80;;;;;;4983502;28;20045;-85
2023/12/06 07:32:13;;;;;;;16.02;11.20;;;4.60;62.80;;;;;;4966305;28;20038;-85
2023/12/06 07:34:41;;;;;;;14.35;11.27;;;4.60;62.80;;;;;;4982876;28;20046;-84
2023/12/06 07:37:08;;;;;;;13.88;11.40;;;4.70;63.00;;;;;;4983530;28;20088;-84
2023/12/06 07:39:34;;;;;;;15.27;11.98;;;4.70;63.10;;;;;;4986395;28;20042;-85
2023/12/06 07:42:27;;;;;;;15.20;12.52;;;4.70;63.10;;;;;;4941979;28;20030;-91
2023/12/06 07:44:58;;;;;;;15.60;11.55;;;4.70;63.20;;;;;;4976215;28;20138;-91
2023/12/06 07:47:24;;;;;;;15.20;13.07;;;4.70;63.10;;;;;;4991498;28;20038;-88
2023/12/06 07:49:51;;;;;;;16.60;12.73;;;4.70;63.10;;;;;;4967173;28;20281;-89
2023/12/06 07:52:18;;;;;;;16.75;12.35;;;4.80;63.30;;;;;;4987728;28;20044;-89
2023/12/06 07:54:46;;;;;;;17.15;12.80;;;4.80;63.40;;;;;;4986644;28;20027;-89
2023/12/06 07:57:13;;;;;;;16.52;13.02;;;4.80;63.30;;;;;;4975242;28;20034;-89
2023/12/06 07:59:40;;;;;;;13.57;11.52;;;4.80;63.30;;;;;;4974271;28;20061;-89
2023/12/06 08:02:06;;;;;;;15.25;12.20;;;4.90;63.60;;;;;;4991982;28;20439;-94
2023/12/06 08:04:32;;;;;;;14.05;10.48;;;4.90;63.60;;;;;;4989111;28;20441;-89
2023/12/06 08:06:59;;;;;;;13.95;11.15;;;4.90;63.60;;;;;;4988752;28;20046;-89
2023/12/06 08:09:29;;;;;;;16.35;10.88;;;4.90;63.60;;;;;;4991253;28;20034;-90
2023/12/06 08:12:07;;;;;;;16.77;11.73;;;5.00;63.80;;;;;;4993940;28;20377;-89
2023/12/06 08:14:39;;;;;;;15.45;11.13;;;5.00;63.80;;;;;;4991909;28;20053;-90
2023/12/06 08:17:06;;;;;;;14.02;11.07;;;5.00;63.80;;;;;;4991147;28;20084;-89
2023/12/06 08:19:32;;;;;;;16.02;11.02;;;5.00;63.80;;;;;;4973751;28;20157;-89
2023/12/06 08:21:59;;;;;;;16.90;11.15;;;5.00;63.80;;;;;;5002254;28;20317;-91
2023/12/06 08:24:25;;;;;;;12.85;10.40;;;5.10;64.00;;;;;;4990993;28;20293;-89
2023/12/06 08:26:54;;;;;;;15.23;10.65;;;5.10;64.00;;;;;;4990562;28;20034;-88
2023/12/06 08:29:23;;;;;;;14.05;11.48;;;5.10;64.00;;;;;;4970134;28;20034;-88
2023/12/06 08:31:51;;;;;;;12.20;10.18;;;5.10;64.00;;;;;;4992408;28;20038;-89
2023/12/06 08:34:22;;;;;;;13.18;10.57;;;5.10;64.00;;;;;;4987669;28;20041;-89
2023/12/06 08:36:50;;;;;;;15.13;11.02;;;5.10;64.00;;;;;;4991479;28;20022;-88
2023/12/06 08:39:16;;;;;;;16.27;11.50;;;5.10;64.00;;;;;;4994382;28;20046;-92
2023/12/06 08:41:46;;;;;;;13.85;11.15;;;5.10;64.00;;;;;;4986878;28;20030;-89
2023/12/06 08:44:12;;;;;;;14.25;10.30;;;5.10;64.00;;;;;;5003250;28;20034;-91
2023/12/06 08:46:42;;;;;;;14.73;11.13;;;5.10;63.90;;;;;;5006609;28;20087;-90
2023/12/06 08:49:13;;;;;;;16.30;10.88;;;5.10;64.00;;;;;;5009148;28;20066;-90
2023/12/06 08:51:41;;;;;;;15.77;11.35;;;5.20;64.10;;;;;;4991170;28;20086;-89
2023/12/06 08:54:06;;;;;;;13.93;11.50;;;5.20;64.10;;;;;;4996869;28;20038;-91
2023/12/06 08:56:33;;;;;;;16.15;12.65;;;5.20;64.10;;;;;;4995293;28;20034;-90
2023/12/06 08:58:59;;;;;;;17.02;13.02;;;5.20;64.10;;;;;;4995758;28;20061;-92
2023/12/06 09:01:29;;;;;;;19.67;13.63;;;5.20;64.10;;;;;;4996901;28;20038;-93
2023/12/06 09:03:56;;;;;;;18.23;12.65;;;5.30;64.30;;;;;;4993257;28;20084;-88
2023/12/06 09:06:22;;;;;;;20.23;13.60;;;5.30;64.20;;;;;;4986568;28;20499;-86
2023/12/06 09:08:50;;;;;;;17.83;13.00;;;5.30;64.20;;;;;;4988068;28;20034;-88
2023/12/06 09:11:20;;;;;;;17.48;13.90;;;5.30;64.20;;;;;;4992184;28;20534;-87
2023/12/06 09:13:47;;;;;;;16.17;13.20;;;5.30;64.10;;;;;;4988603;28;20045;-88
2023/12/06 09:16:16;;;;;;;18.67;14.50;;;5.40;64.30;;;;;;4990142;28;20370;-87
2023/12/06 09:18:42;;;;;;;19.17;13.45;;;5.40;64.30;;;;;;4993256;28;20121;-88
2023/12/06 09:21:13;;;;;;;18.00;13.65;;;5.40;64.20;;;;;;4989924;28;21323;-89
2023/12/06 09:23:40;;;;;;;17.98;13.52;;;5.40;64.20;;;;;;4986460;28;20034;-87
2023/12/06 09:26:10;;;;;;;16.80;13.88;;;5.50;64.30;;;;;;4989270;28;20041;-93
2023/12/06 09:28:38;;;;;;;21.13;13.68;;;5.50;64.30;;;;;;4997630;28;20030;-87
2023/12/06 09:31:06;;;;;;;15.52;11.70;;;5.50;64.30;;;;;;5007302;28;20038;-86
2023/12/06 09:33:32;;;;;;;16.13;12.98;;;5.50;64.20;;;;;;4985897;28;20038;-86
2023/12/06 09:35:58;;;;;;;17.67;13.77;;;5.60;64.40;;;;;;4997531;28;20034;-86
2023/12/06 09:38:24;;;;;;;21.05;14.35;;;5.60;64.40;;;;;;4989264;28;20434;-86
2023/12/06 09:40:50;;;;;;;21.08;14.55;;;5.60;64.30;;;;;;4986367;28;20034;-87
2023/12/06 09:43:18;;;;;;;17.13;13.68;;;5.70;64.50;;;;;;4977799;28;20418;-87
2023/12/06 09:45:46;;;;;;;17.92;13.52;;;5.70;64.50;;;;;;4986170;28;20427;-87
2023/12/06 09:48:12;;;;;;;16.15;12.77;;;5.70;64.40;;;;;;4990723;28;20130;-86
2023/12/06 09:50:39;;;;;;;17.15;14.00;;;5.70;64.40;;;;;;4995529;28;20101;-87
2023/12/06 09:53:05;;;;;;;18.33;13.50;;;5.70;64.40;;;;;;5008313;28;20034;-88
2023/12/06 09:55:37;;;;;;;15.95;13.25;;;5.80;64.50;;;;;;4987048;28;20337;-89
2023/12/06 09:58:06;;;;;;;16.45;13.15;;;5.80;64.50;;;;;;5004558;28;20100;-88
2023/12/06 10:00:33;;;;;;;17.15;13.73;;;5.80;64.50;;;;;;5015217;28;20060;-88
2023/12/06 10:03:00;;;;;;;17.08;12.35;;;5.80;64.50;;;;;;4974963;28;20117;-89
2023/12/06 10:05:32;;;;;;;16.45;12.95;;;5.90;64.60;;;;;;4994228;28;20055;-87
2023/12/06 10:08:01;;;;;;;17.27;13.23;;;5.90;64.60;;;;;;5008242;28;20089;-89
2023/12/06 10:10:27;;;;;;;18.20;12.48;;;5.90;64.60;;;;;;4993312;28;20041;-86
2023/12/06 10:12:57;;;;;;;16.75;12.40;;;6.00;64.80;;;;;;5006139;28;20249;-87
2023/12/06 10:15:42;;;;;;;13.98;11.80;;;5.90;64.50;;;;;;5001587;28;20066;-86
2023/12/06 10:18:10;;;;;;;15.98;13.35;;;6.00;64.70;;;;;;5008600;28;20046;-85
2023/12/06 10:20:36;;;;;;;16.88;12.70;;;6.00;64.60;;;;;;4993639;28;20535;-87
2023/12/06 10:23:02;;;;;;;15.43;12.18;;;6.00;64.50;;;;;;5006086;28;20131;-87
2023/12/06 10:25:39;;;;;;;15.48;12.52;;;6.10;64.70;;;;;;5007084;28;20259;-88
2023/12/06 10:28:05;;;;;;;14.43;11.27;;;6.20;64.90;;;;;;5007291;28;20034;-87
2023/12/06 10:30:32;;;;;;;14.73;11.00;;;6.20;64.90;;;;;;5011321;28;20487;-85
2023/12/06 10:33:02;;;;;;;13.65;11.70;;;6.20;64.80;;;;;;5004858;28;20537;-87
2023/12/06 10:35:33;;;;;;;15.65;12.73;;;6.20;64.70;;;;;;4972902;28;20578;-89
2023/12/06 10:37:59;;;;;;;12.48;10.80;;;6.30;64.90;;;;;;4990041;28;20068;-90
2023/12/06 10:40:28;;;;;;;12.85;10.30;;;6.40;65.00;;;;;;5007870;28;20057;-91
2023/12/06 10:43:08;;;;;;;14.88;10.93;;;6.40;65.10;;;;;;5008747;28;20057;-88
2023/12/06 10:45:36;;;;;;;13.43;11.25;;;6.40;64.90;;;;;;5006130;28;20038;-90
2023/12/06 10:48:05;;;;;;;13.52;10.70;;;6.50;65.00;;;;;;4976397;28;20037;-90
2023/12/06 10:50:34;;;;;;;14.85;11.90;;;6.50;65.00;;;;;;5007631;28;20511;-89
2023/12/06 10:53:03;;;;;;;12.77;11.43;;;6.60;65.10;;;;;;4996296;28;20044;-91
2023/12/06 10:55:33;;;;;;;15.80;11.70;;;6.70;65.20;;;;;;5011014;28;20053;-89
2023/12/06 10:58:00;;;;;;;13.88;11.38;;;6.70;65.10;;;;;;5013201;28;20049;-89
2023/12/06 11:00:27;;;;;;;13.73;11.18;;;6.80;65.20;;;;;;5014925;28;20044;-87
2023/12/06 11:03:01;;;;;;;15.93;11.40;;;6.80;65.20;;;;;;5005365;28;20126;-92
2023/12/06 11:05:32;;;;;;;14.02;10.07;;;6.90;65.30;;;;;;5006897;28;20029;-85
2023/12/06 11:08:20;;;;;;;13.68;10.40;;;6.90;65.20;;;;;;5008050;28;20049;-86
2023/12/06 11:11:24;;;;;;;13.18;10.93;;;6.90;65.10;;;;;;5007599;28;20045;-88
2023/12/06 11:14:29;;;;;;;13.68;10.18;;;7.00;65.30;;;;;;4993059;28;20041;-89
2023/12/06 11:17:28;;;;;;;12.73;9.90;;;7.10;65.40;;;;;;5007564;28;20037;-89
2023/12/06 11:19:55;;;;;;;12.82;10.25;;;7.20;65.40;;;;;;4994488;28;20148;-89
2023/12/06 11:22:24;;;;;;;13.13;10.15;;;7.20;65.30;;;;;;5003989;28;20034;-89
2023/12/06 11:24:51;;;;;;;12.15;10.38;;;7.30;65.40;;;;;;5008222;28;20538;-87
2023/12/06 11:27:20;;;;;;;12.10;9.98;;;7.40;65.50;;;;;;5008813;28;20549;-88
2023/12/06 11:29:52;;;;;;;11.80;9.45;;;7.40;65.40;;;;;;5008811;28;20048;-89
2023/12/06 11:32:21;;;;;;;11.18;9.98;;;7.50;65.50;;;;;;4993929;28;20436;-88
2023/12/06 11:35:01;;;;;;;11.25;9.10;;;7.60;65.50;;;;;;5016674;28;20157;-91
2023/12/06 11:37:31;;;;;;;11.63;9.70;;;7.70;65.60;;;;;;5012142;28;20030;-89
2023/12/06 11:40:24;;;;;;;9.70;8.70;;;7.80;65.60;;;;;;5011253;28;20045;-89
2023/12/06 11:42:58;;;;;;;9.93;8.65;;;7.80;65.50;;;;;;4993722;28;20518;-90
2023/12/06 11:45:25;;;;;;;10.73;9.63;;;7.90;65.60;;;;;;4995029;28;20046;-92
2023/12/06 11:47:53;;;;;;;11.48;8.68;;;8.00;65.50;;;;;;5012611;28;20610;-91
2023/12/06 11:50:22;;;;;;;10.80;8.80;;;8.10;65.60;;;;;;5010982;28;20500;-89
2023/12/06 11:52:49;;;;;;;11.10;8.70;;;8.10;65.50;;;;;;4992297;28;20048;-87
2023/12/06 11:55:20;;;;;;;10.35;9.10;;;8.20;65.50;;;;;;5007213;28;20033;-88
2023/12/06 11:58:01;;;;;;;10.15;9.07;;;8.20;65.40;;;;;;5016438;28;20149;-93
2023/12/06 12:00:31;;;;;;;10.13;9.07;;;8.30;65.40;;;;;;4989351;28;20514;-93
2023/12/06 12:02:59;;;;;;;10.55;9.10;;;8.30;65.30;;;;;;4987304;28;20522;-92
2023/12/06 12:05:25;;;;;;;11.18;9.80;;;8.30;65.20;;;;;;5006005;28;20073;-92
2023/12/06 12:07:52;;;;;;;11.85;10.30;;;8.20;65.00;;;;;;4978981;28;20268;-93
2023/12/06 12:10:21;;;;;;;10.43;9.30;;;8.30;65.20;;;;;;5015009;28;20128;-93
2023/12/06 12:12:49;;;;;;;10.80;9.52;;;8.20;65.10;;;;;;5011559;28;20361;-91
2023/12/06 12:15:18;;;;;;;12.60;9.52;;;8.20;65.00;;;;;;4992989;28;20503;-89
2023/12/06 12:17:46;;;;;;;11.10;9.90;;;8.20;65.00;;;;;;4993996;28;20030;-88
2023/12/06 12:20:19;;;;;;;9.93;8.93;;;8.20;65.00;;;;;;5005945;28;20046;-88
2023/12/06 12:22:52;;;;;;;10.52;9.48;;;8.10;64.80;;;;;;5012075;28;20040;-88
2023/12/06 12:25:22;;;;;;;10.20;8.45;;;8.10;64.80;;;;;;4993100;28;20045;-88
2023/12/06 12:27:49;;;;;;;9.70;8.70;;;8.10;64.80;;;;;;4989724;28;20204;-88
2023/12/06 12:30:16;;;;;;;9.23;8.32;;;8.10;64.80;;;;;;5010170;28;20040;-91
2023/12/06 12:32:44;;;;;;;10.65;9.55;;;8.10;64.70;;;;;;5014257;28;20030;-89
2023/12/06 12:35:16;;;;;;;10.13;8.50;;;8.10;64.70;;;;;;5007447;28;20038;-91
2023/12/06 12:37:44;;;;;;;9.95;8.85;;;8.20;64.80;;;;;;5013665;28;20060;-88
2023/12/06 12:40:10;;;;;;;9.80;8.65;;;8.20;64.80;;;;;;5009753;28;20149;-90
2023/12/06 12:42:41;;;;;;;10.95;9.55;;;8.10;64.50;;;;;;4992774;28;20029;-89
2023/12/06 12:45:15;;;;;;;10.27;8.77;;;8.10;64.50;;;;;;5006721;28;20097;-89
2023/12/06 12:47:43;;;;;;;10.65;9.55;;;8.20;64.60;;;;;;5016211;28;20029;-89
2023/12/06 12:50:18;;;;;;;10.57;9.15;;;8.20;64.60;;;;;;4998150;28;20063;-90
2023/12/06 12:52:45;;;;;;;9.02;8.13;;;8.30;64.70;;;;;;4973944;28;20038;-89